createdAt,value
2023-01-03T00:01:32.477Z,100175.69
2023-01-03T00:04:00.708Z,100168.94
2023-01-03T00:06:30.988Z,100178.91
2023-01-03T00:08:59.735Z,100177.66
2023-01-03T00:11:47.794Z,100182.59
2023-01-03T00:14:20.931Z,100170.81
2023-01-03T00:16:51.427Z,100182.50
2023-01-03T00:19:19.317Z,100179.88
2023-01-03T00:21:46.184Z,100182.16
2023-01-03T00:24:13.493Z,100175.84
2023-01-03T00:26:41.174Z,100186.56
2023-01-03T00:29:08.807Z,100188.25
2023-01-03T00:31:36.457Z,100182.69
2023-01-03T00:34:03.610Z,100189.00
2023-01-03T00:36:30.849Z,100192.94
2023-01-03T00:38:59.142Z,100193.72
2023-01-03T00:41:26.354Z,100193.31
2023-01-03T00:43:53.352Z,100198.19
2023-01-03T00:46:21.831Z,100197.25
2023-01-03T00:48:49.093Z,100187.22
2023-01-03T00:51:25.551Z,100199.38
2023-01-03T00:53:56.167Z,100196.31
2023-01-03T00:56:32.708Z,100211.16
2023-01-03T00:58:59.849Z,100206.72
2023-01-03T01:01:30.783Z,100201.44
2023-01-03T01:04:09.938Z,100214.28
2023-01-03T01:06:42.450Z,100201.47
2023-01-03T01:09:13.292Z,100200.78
2023-01-03T01:11:41.522Z,100205.44
2023-01-03T01:14:20.144Z,100206.47
2023-01-03T01:16:55.210Z,100213.06
2023-01-03T01:19:43.414Z,100208.28
2023-01-03T01:22:11.645Z,100216.75
2023-01-03T01:24:38.675Z,100212.66
2023-01-03T01:27:05.968Z,100214.06
2023-01-03T01:29:32.892Z,100213.09
2023-01-03T01:31:59.821Z,100213.47
2023-01-03T01:34:26.909Z,100216.66
2023-01-03T01:36:53.974Z,100212.97
2023-01-03T01:39:22.904Z,100207.41
2023-01-03T01:42:19.130Z,100206.00
2023-01-03T01:44:54.371Z,100202.72
2023-01-03T01:47:39.533Z,100208.00
2023-01-03T01:50:30.891Z,100212.56
2023-01-03T01:53:01.283Z,100215.44
2023-01-03T01:55:40.691Z,100220.91
2023-01-03T01:58:09.021Z,100214.50
2023-01-03T02:03:12.697Z,100231.63
2023-01-03T02:05:44.320Z,100230.41
2023-01-03T02:08:11.231Z,100225.84
2023-01-03T02:11:02.285Z,100234.22
2023-01-03T02:13:44.465Z,100241.72
2023-01-03T02:16:30.522Z,100230.03
2023-01-03T02:19:02.965Z,100228.28
2023-01-03T02:22:07.099Z,100242.03
2023-01-03T02:25:10.805Z,100248.06
2023-01-03T02:28:14.635Z,100245.34
2023-01-03T02:30:46.917Z,100250.41
2023-01-03T02:33:39.703Z,100252.66
2023-01-03T02:36:17.876Z,100245.28
2023-01-03T02:38:53.554Z,100250.56
2023-01-03T02:41:20.355Z,100257.69
2023-01-03T02:44:27.164Z,100247.84
2023-01-03T02:47:15.344Z,100260.47
2023-01-03T02:49:50.102Z,100255.06
2023-01-03T02:52:29.467Z,100256.38
2023-01-03T02:55:05.901Z,100255.00
2023-01-03T02:57:45.598Z,100259.31
2023-01-03T03:00:16.026Z,100258.00
2023-01-03T03:02:50.262Z,100265.75
2023-01-03T03:05:23.255Z,100265.56
2023-01-03T03:07:50.537Z,100265.56
2023-01-03T03:10:36.524Z,100260.84
2023-01-03T03:13:14.030Z,100274.47
2023-01-03T03:16:13.610Z,100277.34
2023-01-03T03:18:57.195Z,100274.09
2023-01-03T03:21:46.238Z,100275.44
2023-01-03T03:24:40.744Z,100281.06
2023-01-03T03:27:30.523Z,100286.00
2023-01-03T03:30:00.228Z,100282.94
2023-01-03T03:32:30.957Z,100277.06
2023-01-03T03:35:02.190Z,100269.06
2023-01-03T03:37:31.495Z,100276.97
2023-01-03T03:40:17.373Z,100269.88
2023-01-03T03:43:26.156Z,100284.06
2023-01-03T03:46:09.974Z,100290.72
2023-01-03T03:49:07.282Z,100291.31
2023-01-03T03:51:37.445Z,100292.03
2023-01-03T03:54:11.179Z,100299.84
2023-01-03T03:56:40.960Z,100301.75
2023-01-03T03:59:10.517Z,100299.94
2023-01-03T04:01:41.890Z,100316.41
2023-01-03T04:04:22.008Z,100312.53
2023-01-03T04:06:51.472Z,100317.22
2023-01-03T04:09:18.911Z,100318.75
2023-01-03T04:11:45.814Z,100317.31
2023-01-03T04:14:12.627Z,100322.06
2023-01-03T04:16:41.055Z,100321.50
2023-01-03T04:19:08.584Z,100331.00
2023-01-03T04:21:36.968Z,100331.44
2023-01-03T04:24:05.129Z,100339.91
2023-01-03T04:26:32.235Z,100341.81
2023-01-03T04:28:59.047Z,100346.53
2023-01-03T04:31:25.897Z,100341.22
2023-01-03T04:33:54.185Z,100349.31
2023-01-03T04:36:21.581Z,100345.72
2023-01-03T04:38:48.475Z,100346.91
2023-01-03T04:41:15.402Z,100342.97
2023-01-03T04:44:00.847Z,100350.56
2023-01-03T04:46:39.329Z,100344.91
2023-01-03T04:49:08.646Z,100358.59
2023-01-03T04:51:36.369Z,100350.72
2023-01-03T04:54:04.588Z,100355.50
2023-01-03T04:56:34.771Z,100355.00
2023-01-03T04:59:01.882Z,100363.84
2023-01-03T05:01:29.177Z,100362.13
2023-01-03T05:04:00.787Z,100354.81
2023-01-03T05:06:28.767Z,100376.47
2023-01-03T05:08:56.164Z,100381.63
2023-01-03T05:11:23.412Z,100385.81
2023-01-03T05:13:50.593Z,100395.38
2023-01-03T05:16:17.991Z,100384.25
2023-01-03T05:18:44.975Z,100382.44
2023-01-03T05:21:40.790Z,100395.66
2023-01-03T05:24:29.363Z,100398.59
2023-01-03T05:26:57.994Z,100401.59
2023-01-03T05:29:25.856Z,100398.59
2023-01-03T05:31:53.837Z,100398.63
2023-01-03T05:34:20.737Z,100407.47
2023-01-03T05:36:47.522Z,100406.34
2023-01-03T05:39:14.768Z,100410.53
2023-01-03T05:41:59.745Z,100406.38
2023-01-03T05:44:30.815Z,100420.72
2023-01-03T05:46:59.004Z,100417.47
2023-01-03T05:49:26.067Z,100419.56
2023-01-03T05:51:53.238Z,100416.75
2023-01-03T05:54:21.537Z,100414.06
2023-01-03T05:56:48.630Z,100408.75
2023-01-03T05:59:16.237Z,100422.50
2023-01-03T06:01:43.338Z,100423.16
2023-01-03T06:04:10.379Z,100414.16
2023-01-03T06:06:37.321Z,100414.88
2023-01-03T06:09:04.191Z,100424.94
2023-01-03T06:11:31.545Z,100417.47
2023-01-03T06:13:58.761Z,100425.31
2023-01-03T06:16:44.268Z,100427.97
2023-01-03T06:19:12.894Z,100424.69
2023-01-03T06:21:41.711Z,100427.78
2023-01-03T06:24:09.395Z,100430.09
2023-01-03T06:26:36.971Z,100438.03
2023-01-03T06:29:06.309Z,100436.75
2023-01-03T06:31:33.487Z,100427.25
2023-01-03T06:34:00.479Z,100427.47
2023-01-03T06:36:27.317Z,100429.56
2023-01-03T06:38:54.735Z,100433.47
2023-01-03T06:41:22.121Z,100438.78
2023-01-03T06:43:49.180Z,100442.25
2023-01-03T06:46:35.400Z,100426.13
2023-01-03T06:49:21.041Z,100429.72
2023-01-03T06:52:08.058Z,100433.34
2023-01-03T06:54:37.432Z,100431.72
2023-01-03T06:57:04.952Z,100436.50
2023-01-03T06:59:32.269Z,100442.28
2023-01-03T07:01:59.612Z,100430.94
2023-01-03T07:04:27.181Z,100433.28
2023-01-03T07:06:54.908Z,100440.38
2023-01-03T07:09:21.743Z,100450.34
2023-01-03T07:11:48.657Z,100442.00
2023-01-03T07:14:15.526Z,100457.06
2023-01-03T07:16:44.309Z,100451.94
2023-01-03T07:19:14.629Z,100455.78
2023-01-03T07:21:41.939Z,100450.09
2023-01-03T07:24:10.828Z,100460.03
2023-01-03T07:26:37.681Z,100459.25
2023-01-03T07:29:07.980Z,100446.94
2023-01-03T07:31:35.419Z,100461.84
2023-01-03T07:34:02.358Z,100452.22
2023-01-03T07:36:29.331Z,100456.59
2023-01-03T07:38:56.335Z,100468.81
2023-01-03T07:41:43.934Z,100457.44
2023-01-03T07:44:10.928Z,100468.72
2023-01-03T07:46:37.909Z,100466.13
2023-01-03T07:49:09.626Z,100460.09
2023-01-03T07:51:38.554Z,100459.19
2023-01-03T07:54:05.551Z,100462.72
2023-01-03T07:56:32.636Z,100467.09
2023-01-03T07:58:59.944Z,100455.72
2023-01-03T08:01:27.092Z,100458.25
2023-01-03T08:03:54.413Z,100455.06
2023-01-03T08:06:23.481Z,100460.72
2023-01-03T08:09:11.309Z,100466.84
2023-01-03T08:11:57.405Z,100459.16
2023-01-03T08:14:26.655Z,100473.09
2023-01-03T08:16:54.968Z,100475.88
2023-01-03T08:19:21.923Z,100483.50
2023-01-03T08:21:48.846Z,100479.28
2023-01-03T08:24:15.793Z,100471.47
2023-01-03T08:26:42.674Z,100479.38
2023-01-03T08:29:09.703Z,100477.63
2023-01-03T08:31:44.910Z,100476.75
2023-01-03T08:34:18.389Z,100481.88
2023-01-03T08:36:57.037Z,100472.25
2023-01-03T08:39:30.654Z,100471.31
2023-01-03T08:42:07.116Z,100474.91
2023-01-03T08:44:34.494Z,100467.97
2023-01-03T08:47:07.880Z,100469.63
2023-01-03T08:49:35.332Z,100477.38
2023-01-03T08:52:02.261Z,100472.38
2023-01-03T08:54:29.057Z,100470.59
2023-01-03T08:56:56.436Z,100475.56
2023-01-03T08:59:23.292Z,100473.09
2023-01-03T09:01:50.711Z,100468.50
2023-01-03T09:04:17.923Z,100465.16
2023-01-03T09:06:44.870Z,100463.50
2023-01-03T09:09:11.752Z,100460.91
2023-01-03T09:11:38.655Z,100451.34
2023-01-03T09:14:05.561Z,100454.75
2023-01-03T09:16:32.434Z,100453.00
2023-01-03T09:19:00.195Z,100445.19
2023-01-03T09:21:28.137Z,100443.50
2023-01-03T09:23:55.127Z,100446.09
2023-01-03T09:26:22.598Z,100438.22
2023-01-03T09:28:49.513Z,100432.09
2023-01-03T09:31:16.638Z,100439.03
2023-01-03T09:33:43.691Z,100433.81
2023-01-03T09:36:10.500Z,100440.69
2023-01-03T09:38:37.351Z,100430.13
2023-01-03T09:41:09.155Z,100419.56
2023-01-03T09:43:42.647Z,100422.41
2023-01-03T09:46:18.477Z,100415.22
2023-01-03T09:48:46.644Z,100419.81
2023-01-03T09:51:57.574Z,100411.81
2023-01-03T09:54:50.301Z,100410.00
2023-01-03T09:57:56.231Z,100408.22
2023-01-03T10:00:50.418Z,100411.50
2023-01-03T10:03:51.047Z,100406.94
2023-01-03T10:06:40.202Z,100397.09
2023-01-03T10:09:23.980Z,100392.00
2023-01-03T10:12:16.854Z,100398.09
2023-01-03T10:15:16.114Z,100385.84
2023-01-03T10:17:54.699Z,100390.03
2023-01-03T10:20:43.012Z,100391.03
2023-01-03T10:23:10.603Z,100377.16
2023-01-03T10:25:41.423Z,100377.84
2023-01-03T10:28:25.422Z,100384.00
2023-01-03T10:31:26.062Z,100372.44
2023-01-03T10:33:53.047Z,100371.88
2023-01-03T10:36:21.857Z,100367.63
2023-01-03T10:38:53.291Z,100361.16
2023-01-03T10:41:30.622Z,100364.53
2023-01-03T10:44:00.360Z,100366.31
2023-01-03T10:46:28.447Z,100362.53
2023-01-03T10:49:31.348Z,100359.19
2023-01-03T10:51:59.134Z,100347.56
2023-01-03T10:54:32.069Z,100354.59
2023-01-03T10:56:59.076Z,100341.63
2023-01-03T10:59:32.096Z,100346.03
2023-01-03T11:02:01.643Z,100322.97
2023-01-03T11:04:30.714Z,100326.75
2023-01-03T11:07:13.998Z,100328.91
2023-01-03T11:09:51.702Z,100321.22
2023-01-03T11:12:39.885Z,100314.44
2023-01-03T11:15:37.563Z,100313.84
2023-01-03T11:18:16.635Z,100317.41
2023-01-03T11:21:01.439Z,100311.28
2023-01-03T11:23:57.986Z,100311.31
2023-01-03T11:26:50.949Z,100312.13
2023-01-03T11:29:42.182Z,100305.94
2023-01-03T11:32:28.392Z,100303.28
2023-01-03T11:35:24.290Z,100298.81
2023-01-03T11:38:18.729Z,100290.19
2023-01-03T11:40:51.694Z,100293.72
2023-01-03T11:43:18.485Z,100285.72
2023-01-03T11:46:02.719Z,100286.56
2023-01-03T11:48:29.824Z,100281.28
2023-01-03T11:51:15.857Z,100273.50
2023-01-03T11:54:03.533Z,100276.94
2023-01-03T11:56:39.371Z,100272.56
2023-01-03T11:59:28.197Z,100270.72
2023-01-03T12:02:22.421Z,100264.66
2023-01-03T12:05:01.248Z,100268.19
2023-01-03T12:07:56.622Z,100268.94
2023-01-03T12:10:30.977Z,100269.81
2023-01-03T12:13:09.590Z,100265.59
2023-01-03T12:15:49.803Z,100258.56
2023-01-03T12:18:37.826Z,100256.91
2023-01-03T12:21:35.804Z,100254.31
2023-01-03T12:24:30.964Z,100253.34
2023-01-03T12:27:25.746Z,100247.31
2023-01-03T12:30:25.780Z,100250.84
2023-01-03T12:32:57.584Z,100247.38
2023-01-03T12:35:50.264Z,100253.41
2023-01-03T12:38:21.920Z,100238.59
2023-01-03T12:41:17.855Z,100237.78
2023-01-03T12:44:22.519Z,100242.19
2023-01-03T12:46:53.790Z,100236.06
2023-01-03T12:49:38.129Z,100229.91
2023-01-03T12:52:05.407Z,100236.94
2023-01-03T12:54:57.850Z,100229.06
2023-01-03T12:57:48.305Z,100241.25
2023-01-03T13:00:43.787Z,100242.94
2023-01-03T13:03:13.537Z,100235.94
2023-01-03T13:05:56.602Z,100240.19
2023-01-03T13:08:46.765Z,100240.22
2023-01-03T13:11:20.083Z,100237.50
2023-01-03T13:13:55.995Z,100233.19
2023-01-03T13:16:34.608Z,100241.03
2023-01-03T13:19:19.954Z,100227.13
2023-01-03T13:21:53.290Z,100235.88
2023-01-03T13:24:51.409Z,100234.97
2023-01-03T13:27:21.603Z,100231.53
2023-01-03T13:29:51.282Z,100238.47
2023-01-03T13:32:31.601Z,100226.28
2023-01-03T13:35:01.442Z,100235.03
2023-01-03T13:37:34.854Z,100223.59
2023-01-03T13:41:07.961Z,100232.28
2023-01-03T13:43:34.671Z,100240.16
2023-01-03T13:46:26.235Z,100234.03
2023-01-03T13:49:00.502Z,100233.97
2023-01-03T13:51:39.252Z,100236.63
2023-01-03T13:54:58.489Z,100235.75
2023-01-03T13:57:37.821Z,100246.88
2023-01-03T14:00:13.957Z,100241.72
2023-01-03T14:03:18.074Z,100248.69
2023-01-03T14:06:07.938Z,100245.34
2023-01-03T14:08:46.642Z,100241.81
2023-01-03T14:11:55.723Z,100245.19
2023-01-03T14:14:27.641Z,100241.69
2023-01-03T14:16:57.974Z,100246.00
2023-01-03T14:19:32.492Z,100242.41
2023-01-03T14:22:30.377Z,100237.94
2023-01-03T14:24:59.126Z,100238.72
2023-01-03T14:27:46.714Z,100250.00
2023-01-03T14:30:24.453Z,100245.50
2023-01-03T14:32:51.174Z,100238.41
2023-01-03T14:35:40.375Z,100248.00
2023-01-03T14:38:23.073Z,100240.91
2023-01-03T14:40:49.879Z,100245.22
2023-01-03T14:43:21.320Z,100241.69
2023-01-03T14:46:01.889Z,100249.56
2023-01-03T14:48:28.756Z,100239.78
2023-01-03T14:50:56.187Z,100249.28
2023-01-03T14:53:23.349Z,100257.88
2023-01-03T14:55:55.476Z,100255.19
2023-01-03T14:58:25.061Z,100256.78
2023-01-03T15:00:54.100Z,100251.44
2023-01-03T15:03:21.255Z,100263.56
2023-01-03T15:05:53.827Z,100261.69
2023-01-03T15:08:32.192Z,100263.97
2023-01-03T15:11:08.351Z,100270.75
2023-01-03T15:13:37.986Z,100261.97
2023-01-03T15:16:07.982Z,100263.56
2023-01-03T15:18:40.051Z,100263.50
2023-01-03T15:21:06.999Z,100268.63
2023-01-03T15:23:42.460Z,100271.16
2023-01-03T15:26:42.721Z,100281.41
2023-01-03T15:29:16.837Z,100276.81
2023-01-03T15:32:01.794Z,100275.69
2023-01-03T15:34:28.975Z,100291.31
2023-01-03T15:37:00.035Z,100283.44
2023-01-03T15:39:31.413Z,100295.47
2023-01-03T15:42:43.463Z,100277.94
2023-01-03T15:45:36.944Z,100285.66
2023-01-03T15:48:13.722Z,100282.00
2023-01-03T15:50:48.585Z,100290.41
2023-01-03T15:53:27.878Z,100293.03
2023-01-03T15:55:59.521Z,100293.59
2023-01-03T15:58:28.344Z,100288.22
2023-01-03T16:00:55.621Z,100296.47
2023-01-03T16:03:24.829Z,100300.72
2023-01-03T16:05:51.974Z,100305.16
2023-01-03T16:08:31.212Z,100307.75
2023-01-03T16:11:01.063Z,100316.09
2023-01-03T16:13:39.050Z,100315.31
2023-01-03T16:16:07.469Z,100313.59
2023-01-03T16:18:47.247Z,100321.44
2023-01-03T16:21:14.767Z,100328.88
2023-01-03T16:23:42.128Z,100323.06
2023-01-03T16:26:09.095Z,100329.97
2023-01-03T16:28:36.035Z,100332.09
2023-01-03T16:31:13.812Z,100338.88
2023-01-03T16:33:42.603Z,100333.44
2023-01-03T16:36:24.666Z,100335.13
2023-01-03T16:38:51.521Z,100338.59
2023-01-03T16:41:18.328Z,100347.06
2023-01-03T16:43:45.511Z,100351.56
2023-01-03T16:46:14.657Z,100345.31
2023-01-03T16:48:45.102Z,100344.06
2023-01-03T16:51:20.139Z,100355.34
2023-01-03T16:53:48.441Z,100351.56
2023-01-03T16:56:15.260Z,100353.34
2023-01-03T16:58:42.172Z,100362.41
2023-01-03T17:01:09.105Z,100360.75
2023-01-03T17:03:41.571Z,100358.47
2023-01-03T17:06:38.308Z,100364.44
2023-01-03T17:09:19.289Z,100365.22
2023-01-03T17:11:46.930Z,100361.13
2023-01-03T17:14:18.947Z,100357.28
2023-01-03T17:16:46.666Z,100362.53
2023-01-03T17:20:02.581Z,100352.88
2023-01-03T17:22:21.884Z,100370.09
2023-01-03T17:24:52.592Z,100366.81
2023-01-03T17:27:32.535Z,100360.63
2023-01-03T17:30:07.081Z,100360.13
2023-01-03T17:32:34.239Z,100372.69
2023-01-03T17:35:03.305Z,100372.16
2023-01-03T17:37:40.644Z,100370.00
2023-01-03T17:40:20.568Z,100374.16
2023-01-03T17:42:52.590Z,100368.19
2023-01-03T17:45:38.313Z,100379.22
2023-01-03T17:48:24.348Z,100370.63
2023-01-03T17:50:51.177Z,100380.31
2023-01-03T17:53:20.487Z,100377.84
2023-01-03T17:55:49.420Z,100370.88
2023-01-03T17:58:20.418Z,100382.38
2023-01-03T18:00:47.310Z,100379.41
2023-01-03T18:03:14.500Z,100384.44
2023-01-03T18:05:43.651Z,100387.00
2023-01-03T18:08:18.568Z,100392.03
2023-01-03T18:10:47.465Z,100392.03
2023-01-03T18:13:33.820Z,100387.59
2023-01-03T18:16:00.816Z,100387.13
2023-01-03T18:18:28.888Z,100386.38
2023-01-03T18:20:57.055Z,100381.03
2023-01-03T18:23:31.901Z,100395.09
2023-01-03T18:26:02.918Z,100389.63
2023-01-03T18:28:29.877Z,100387.34
2023-01-03T18:30:57.572Z,100384.75
2023-01-03T18:33:25.192Z,100390.72
2023-01-03T18:35:52.985Z,100404.53
2023-01-03T18:38:44.098Z,100406.09
2023-01-03T18:41:18.708Z,100393.38
2023-01-03T18:43:45.533Z,100405.91
2023-01-03T18:46:16.513Z,100389.06
2023-01-03T18:48:43.462Z,100406.44
2023-01-03T18:51:18.785Z,100403.16
2023-01-03T18:53:48.434Z,100400.19
2023-01-03T18:56:36.307Z,100404.81
2023-01-03T18:59:07.277Z,100405.19
2023-01-03T19:01:34.684Z,100410.84
2023-01-03T19:04:01.804Z,100413.19
2023-01-03T19:06:31.608Z,100412.34
2023-01-03T19:09:00.953Z,100412.66
2023-01-03T19:11:31.084Z,100415.84
2023-01-03T19:14:01.106Z,100406.63
2023-01-03T19:16:33.805Z,100418.59
2023-01-03T19:19:01.903Z,100420.59
2023-01-03T19:21:37.664Z,100409.31
2023-01-03T19:24:08.536Z,100415.09
2023-01-03T19:26:57.544Z,100423.22
2023-01-03T19:29:37.051Z,100413.78
2023-01-03T19:32:08.383Z,100428.59
2023-01-03T19:34:35.241Z,100426.72
2023-01-03T19:37:02.347Z,100425.41
2023-01-03T19:39:35.191Z,100424.75
2023-01-03T19:42:24.415Z,100425.47
2023-01-03T19:44:51.520Z,100425.50
2023-01-03T19:47:20.518Z,100417.72
2023-01-03T19:49:48.292Z,100417.81
2023-01-03T19:52:18.701Z,100412.97
2023-01-03T19:54:45.579Z,100422.63
2023-01-03T19:57:30.563Z,100428.53
2023-01-03T20:00:00.955Z,100418.97
2023-01-03T20:02:36.672Z,100422.41
2023-01-03T20:05:13.330Z,100428.88
2023-01-03T20:07:40.357Z,100433.94
2023-01-03T20:10:07.789Z,100446.25
2023-01-03T20:12:34.596Z,100447.25
2023-01-03T20:15:06.875Z,100436.09
2023-01-03T20:17:34.258Z,100443.91
2023-01-03T20:20:01.108Z,100448.25
2023-01-03T20:23:03.231Z,100450.19
2023-01-03T20:25:32.751Z,100459.03
2023-01-03T20:28:01.242Z,100456.44
2023-01-03T20:30:30.478Z,100453.78
2023-01-03T20:32:57.595Z,100454.88
2023-01-03T20:36:08.394Z,100466.13
2023-01-03T20:38:13.430Z,100442.81
2023-01-03T20:40:40.345Z,100459.06
2023-01-03T20:43:14.539Z,100455.03
2023-01-03T20:45:41.636Z,100457.91
2023-01-03T20:48:22.726Z,100463.94
2023-01-03T20:50:52.011Z,100459.25
2023-01-03T20:53:21.537Z,100455.38
2023-01-03T20:55:49.009Z,100452.47
2023-01-03T20:58:20.965Z,100456.59
2023-01-03T21:00:48.340Z,100461.50
2023-01-03T21:03:15.324Z,100463.53
2023-01-03T21:05:42.449Z,100455.00
2023-01-03T21:08:35.206Z,100456.13
2023-01-03T21:11:02.335Z,100449.16
2023-01-03T21:13:29.516Z,100446.00
2023-01-03T21:15:56.527Z,100449.47
2023-01-03T21:18:23.520Z,100452.53
2023-01-03T21:20:50.391Z,100455.72
2023-01-03T21:23:23.088Z,100447.16
2023-01-03T21:25:50.313Z,100460.41
2023-01-03T21:28:17.150Z,100466.06
2023-01-03T21:30:44.088Z,100457.84
2023-01-03T21:33:17.295Z,100466.94
2023-01-03T21:35:44.600Z,100461.41
2023-01-03T21:38:11.652Z,100472.53
2023-01-03T21:40:38.532Z,100464.00
2023-01-03T21:43:06.039Z,100468.56
2023-01-03T21:45:38.266Z,100477.09
2023-01-03T21:48:11.305Z,100472.69
2023-01-03T21:50:40.365Z,100474.38
2023-01-03T21:53:07.339Z,100466.56
2023-01-03T21:55:34.284Z,100469.88
2023-01-03T21:58:01.141Z,100486.47
2023-01-03T22:00:27.980Z,100485.56
2023-01-03T22:03:13.318Z,100492.13
2023-01-03T22:05:40.245Z,100489.09
2023-01-03T22:08:07.050Z,100481.28
2023-01-03T22:10:34.569Z,100489.75
2023-01-03T22:13:07.529Z,100488.16
2023-01-03T22:15:39.092Z,100482.47
2023-01-03T22:18:09.134Z,100481.28
2023-01-03T22:20:38.850Z,100488.44
2023-01-03T22:23:07.029Z,100489.97
2023-01-03T22:25:34.340Z,100488.81
2023-01-03T22:28:01.361Z,100494.47
2023-01-03T22:30:28.256Z,100499.41
2023-01-03T22:32:57.690Z,100498.22
2023-01-03T22:35:24.852Z,100494.00
2023-01-03T22:37:56.673Z,100496.25
2023-01-03T22:40:23.593Z,100502.56
2023-01-03T22:42:50.392Z,100497.06
2023-01-03T22:45:17.271Z,100508.09
2023-01-03T22:47:44.068Z,100502.66
2023-01-03T22:50:11.781Z,100516.81
2023-01-03T22:52:40.368Z,100514.97
2023-01-03T22:55:08.306Z,100510.91
2023-01-03T22:57:35.117Z,100509.72
2023-01-03T23:00:02.135Z,100508.84
2023-01-03T23:02:30.214Z,100519.09
2023-01-03T23:04:58.343Z,100514.84
2023-01-03T23:07:25.235Z,100516.38
2023-01-03T23:09:58.225Z,100515.78
2023-01-03T23:12:43.829Z,100504.50
2023-01-03T23:15:10.852Z,100507.41
2023-01-03T23:17:56.181Z,100510.78
2023-01-03T23:20:28.897Z,100511.72
2023-01-03T23:23:00.011Z,100509.34
2023-01-03T23:25:27.296Z,100499.03
2023-01-03T23:27:54.102Z,100504.13
2023-01-03T23:30:20.953Z,100501.63
2023-01-03T23:32:47.881Z,100493.16
2023-01-03T23:35:18.793Z,100497.91
2023-01-03T23:37:49.439Z,100506.03
2023-01-03T23:40:16.631Z,100497.34
2023-01-03T23:42:43.406Z,100500.94
2023-01-03T23:45:10.605Z,100510.53
2023-01-03T23:47:37.437Z,100511.03
2023-01-03T23:50:04.647Z,100509.00
2023-01-03T23:52:32.947Z,100515.44
2023-01-03T23:55:02.648Z,100515.63
2023-01-03T23:57:33.761Z,100518.03
